sensor_id;sensor_type;location;lat;lon;timestamp;P1;durP1;ratioP1;P2;durP2;ratioP2
19364;SDS011;9818;48.382;10.850;2022-10-30T00:00:59;9.00;;;5.10;;
19364;SDS011;9818;48.382;10.850;2022-10-30T00:03:28;6.60;;;4.07;;
19364;SDS011;9818;48.382;10.850;2022-10-30T00:05:57;7.27;;;4.07;;
19364;SDS011;9818;48.382;10.850;2022-10-30T00:08:25;5.93;;;4.57;;
19364;SDS011;9818;48.382;10.850;2022-10-30T00:10:54;8.20;;;4.97;;
19364;SDS011;9818;48.382;10.850;2022-10-30T00:13:23;8.53;;;5.57;;
19364;SDS011;9818;48.382;10.850;2022-10-30T00:15:52;9.73;;;5.23;;
19364;SDS011;9818;48.382;10.850;2022-10-30T00:18:23;7.57;;;4.53;;
19364;SDS011;9818;48.382;10.850;2022-10-30T00:20:52;6.97;;;4.40;;
19364;SDS011;9818;48.382;10.850;2022-10-30T00:23:20;6.10;;;4.60;;
19364;SDS011;9818;48.382;10.850;2022-10-30T00:25:49;12.07;;;6.20;;
19364;SDS011;9818;48.382;10.850;2022-10-30T06:44:28;9.50;;;4.00;;
19364;SDS011;9818;48.382;10.850;2022-10-30T06:54:22;6.20;;;3.90;;
19364;SDS011;9818;48.382;10.850;2022-10-30T07:01:50;6.50;;;4.03;;
19364;SDS011;9818;48.382;10.850;2022-10-30T07:09:17;8.27;;;3.93;;
19364;SDS011;9818;48.382;10.850;2022-10-30T07:11:45;7.55;;;3.90;;
19364;SDS011;9818;48.382;10.850;2022-10-30T07:31:38;7.33;;;3.63;;
19364;SDS011;9818;48.382;10.850;2022-10-30T07:39:04;8.27;;;4.43;;
19364;SDS011;9818;48.382;10.850;2022-10-30T07:41:33;8.23;;;3.90;;
19364;SDS011;9818;48.382;10.850;2022-10-30T07:53:57;8.23;;;3.50;;
19364;SDS011;9818;48.382;10.850;2022-10-30T07:56:26;5.40;;;3.53;;
19364;SDS011;9818;48.382;10.850;2022-10-30T08:01:23;6.60;;;3.43;;
19364;SDS011;9818;48.382;10.850;2022-10-30T08:08:51;8.27;;;3.67;;
19364;SDS011;9818;48.382;10.850;2022-10-30T08:11:19;6.77;;;3.57;;
19364;SDS011;9818;48.382;10.850;2022-10-30T08:13:48;4.83;;;2.83;;
19364;SDS011;9818;48.382;10.850;2022-10-30T08:16:17;5.00;;;2.90;;
19364;SDS011;9818;48.382;10.850;2022-10-30T08:21:14;5.90;;;3.00;;
19364;SDS011;9818;48.382;10.850;2022-10-30T08:23:45;7.20;;;3.10;;
19364;SDS011;9818;48.382;10.850;2022-10-30T08:26:15;4.93;;;3.20;;
19364;SDS011;9818;48.382;10.850;2022-10-30T08:28:44;9.43;;;3.10;;
19364;SDS011;9818;48.382;10.850;2022-10-30T08:31:13;6.80;;;2.70;;
19364;SDS011;9818;48.382;10.850;2022-10-30T08:33:41;6.57;;;3.07;;
19364;SDS011;9818;48.382;10.850;2022-10-30T08:36:10;7.07;;;2.87;;
19364;SDS011;9818;48.382;10.850;2022-10-30T08:38:38;6.57;;;2.37;;
19364;SDS011;9818;48.382;10.850;2022-10-30T08:41:10;5.95;;;3.47;;
19364;SDS011;9818;48.382;10.850;2022-10-30T08:43:38;6.07;;;3.00;;
19364;SDS011;9818;48.382;10.850;2022-10-30T08:46:07;5.20;;;3.08;;
19364;SDS011;9818;48.382;10.850;2022-10-30T08:48:36;5.80;;;3.10;;
19364;SDS011;9818;48.382;10.850;2022-10-30T08:51:04;8.23;;;3.30;;
19364;SDS011;9818;48.382;10.850;2022-10-30T08:53:33;4.20;;;2.88;;
19364;SDS011;9818;48.382;10.850;2022-10-30T08:56:02;4.40;;;3.03;;
19364;SDS011;9818;48.382;10.850;2022-10-30T08:58:34;4.55;;;3.20;;
19364;SDS011;9818;48.382;10.850;2022-10-30T09:01:02;5.55;;;2.65;;
19364;SDS011;9818;48.382;10.850;2022-10-30T09:03:31;5.43;;;2.70;;
19364;SDS011;9818;48.382;10.850;2022-10-30T09:06:00;4.68;;;2.53;;
19364;SDS011;9818;48.382;10.850;2022-10-30T09:08:29;8.10;;;3.05;;
19364;SDS011;9818;48.382;10.850;2022-10-30T09:10:57;4.97;;;2.88;;
19364;SDS011;9818;48.382;10.850;2022-10-30T09:13:26;3.88;;;2.35;;
19364;SDS011;9818;48.382;10.850;2022-10-30T09:16:01;5.78;;;2.70;;
19364;SDS011;9818;48.382;10.850;2022-10-30T09:18:30;6.13;;;2.53;;
19364;SDS011;9818;48.382;10.850;2022-10-30T09:20:58;9.77;;;2.80;;
19364;SDS011;9818;48.382;10.850;2022-10-30T09:23:27;6.93;;;3.25;;
19364;SDS011;9818;48.382;10.850;2022-10-30T09:25:56;5.20;;;2.65;;
19364;SDS011;9818;48.382;10.850;2022-10-30T09:28:25;4.22;;;2.10;;
19364;SDS011;9818;48.382;10.850;2022-10-30T09:30:53;6.53;;;2.85;;
19364;SDS011;9818;48.382;10.850;2022-10-30T09:33:24;8.68;;;3.15;;
19364;SDS011;9818;48.382;10.850;2022-10-30T09:35:53;5.45;;;2.50;;
19364;SDS011;9818;48.382;10.850;2022-10-30T09:38:22;7.22;;;3.00;;
19364;SDS011;9818;48.382;10.850;2022-10-30T09:40:55;7.97;;;2.83;;
19364;SDS011;9818;48.382;10.850;2022-10-30T09:43:43;5.03;;;2.95;;
19364;SDS011;9818;48.382;10.850;2022-10-30T09:46:24;3.00;;;2.38;;
19364;SDS011;9818;48.382;10.850;2022-10-30T09:49:10;6.57;;;2.55;;
19364;SDS011;9818;48.382;10.850;2022-10-30T09:52:00;7.10;;;2.70;;
19364;SDS011;9818;48.382;10.850;2022-10-30T09:54:55;5.53;;;2.75;;
19364;SDS011;9818;48.382;10.850;2022-10-30T09:57:40;6.22;;;2.58;;
19364;SDS011;9818;48.382;10.850;2022-10-30T10:00:14;4.82;;;2.65;;
19364;SDS011;9818;48.382;10.850;2022-10-30T10:02:52;3.95;;;2.60;;
19364;SDS011;9818;48.382;10.850;2022-10-30T10:05:35;8.25;;;3.03;;
19364;SDS011;9818;48.382;10.850;2022-10-30T10:08:13;6.30;;;2.80;;
19364;SDS011;9818;48.382;10.850;2022-10-30T10:10:47;5.47;;;2.47;;
19364;SDS011;9818;48.382;10.850;2022-10-30T10:13:22;4.65;;;2.40;;
19364;SDS011;9818;48.382;10.850;2022-10-30T10:15:57;4.63;;;2.13;;
19364;SDS011;9818;48.382;10.850;2022-10-30T10:18:30;7.40;;;2.42;;
19364;SDS011;9818;48.382;10.850;2022-10-30T10:21:08;3.45;;;1.92;;
19364;SDS011;9818;48.382;10.850;2022-10-30T10:23:46;7.60;;;2.47;;
19364;SDS011;9818;48.382;10.850;2022-10-30T10:26:21;6.10;;;2.55;;
19364;SDS011;9818;48.382;10.850;2022-10-30T10:31:53;4.97;;;2.50;;
19364;SDS011;9818;48.382;10.850;2022-10-30T10:34:39;5.18;;;2.17;;
19364;SDS011;9818;48.382;10.850;2022-10-30T10:37:25;5.70;;;2.40;;
19364;SDS011;9818;48.382;10.850;2022-10-30T10:42:59;6.03;;;2.38;;
19364;SDS011;9818;48.382;10.850;2022-10-30T10:45:40;5.72;;;2.33;;
19364;SDS011;9818;48.382;10.850;2022-10-30T10:51:15;3.78;;;2.20;;
19364;SDS011;9818;48.382;10.850;2022-10-30T10:53:50;3.15;;;2.10;;
19364;SDS011;9818;48.382;10.850;2022-10-30T10:56:24;6.63;;;2.20;;
19364;SDS011;9818;48.382;10.850;2022-10-30T11:01:31;6.10;;;2.33;;
19364;SDS011;9818;48.382;10.850;2022-10-30T11:09:14;5.43;;;2.22;;
19364;SDS011;9818;48.382;10.850;2022-10-30T11:11:46;7.60;;;2.63;;
19364;SDS011;9818;48.382;10.850;2022-10-30T11:21:47;4.20;;;2.30;;
